sensor_id;sensor_type;location;lat;lon;timestamp;P1;durP1;ratioP1;P2;durP2;ratioP2
62929;SDS011;49036;42.782;23.108;2022-12-18T00:01:49;24.83;;;11.13;;
62929;SDS011;49036;42.782;23.108;2022-12-18T00:04:18;25.02;;;11.75;;
62929;SDS011;49036;42.782;23.108;2022-12-18T00:06:46;25.30;;;10.25;;
62929;SDS011;49036;42.782;23.108;2022-12-18T00:09:12;25.45;;;10.98;;
62929;SDS011;49036;42.782;23.108;2022-12-18T00:11:37;24.08;;;10.52;;
62929;SDS011;49036;42.782;23.108;2022-12-18T00:14:03;23.50;;;10.73;;
62929;SDS011;49036;42.782;23.108;2022-12-18T00:16:29;27.73;;;12.07;;
62929;SDS011;49036;42.782;23.108;2022-12-18T00:18:58;22.13;;;10.50;;
62929;SDS011;49036;42.782;23.108;2022-12-18T00:21:24;20.98;;;8.65;;
62929;SDS011;49036;42.782;23.108;2022-12-18T00:23:50;19.00;;;9.02;;
62929;SDS011;49036;42.782;23.108;2022-12-18T00:26:20;18.55;;;9.23;;
62929;SDS011;49036;42.782;23.108;2022-12-18T00:28:50;18.60;;;9.27;;
62929;SDS011;49036;42.782;23.108;2022-12-18T00:31:18;18.58;;;8.55;;
62929;SDS011;49036;42.782;23.108;2022-12-18T00:33:46;19.70;;;9.80;;
62929;SDS011;49036;42.782;23.108;2022-12-18T00:36:19;23.40;;;8.63;;
62929;SDS011;49036;42.782;23.108;2022-12-18T00:38:46;17.10;;;9.27;;
62929;SDS011;49036;42.782;23.108;2022-12-18T00:41:13;14.95;;;8.90;;
62929;SDS011;49036;42.782;23.108;2022-12-18T00:44:00;14.40;;;7.80;;
62929;SDS011;49036;42.782;23.108;2022-12-18T00:46:26;26.30;;;10.93;;
62929;SDS011;49036;42.782;23.108;2022-12-18T00:48:51;15.10;;;9.27;;
62929;SDS011;49036;42.782;23.108;2022-12-18T00:51:17;19.25;;;9.40;;
62929;SDS011;49036;42.782;23.108;2022-12-18T00:53:42;15.85;;;8.13;;
62929;SDS011;49036;42.782;23.108;2022-12-18T00:56:08;19.45;;;10.63;;
62929;SDS011;49036;42.782;23.108;2022-12-18T00:58:33;22.58;;;9.82;;
62929;SDS011;49036;42.782;23.108;2022-12-18T01:00:59;20.50;;;11.10;;
62929;SDS011;49036;42.782;23.108;2022-12-18T01:03:24;27.10;;;11.23;;
62929;SDS011;49036;42.782;23.108;2022-12-18T01:05:49;29.52;;;12.02;;
62929;SDS011;49036;42.782;23.108;2022-12-18T01:08:15;27.27;;;13.23;;
62929;SDS011;49036;42.782;23.108;2022-12-18T01:10:40;26.42;;;11.52;;
62929;SDS011;49036;42.782;23.108;2022-12-18T01:13:06;24.63;;;10.40;;
62929;SDS011;49036;42.782;23.108;2022-12-18T01:15:32;31.20;;;11.98;;
62929;SDS011;49036;42.782;23.108;2022-12-18T01:17:57;23.92;;;11.32;;
62929;SDS011;49036;42.782;23.108;2022-12-18T01:20:23;24.27;;;11.38;;
62929;SDS011;49036;42.782;23.108;2022-12-18T01:22:48;19.92;;;9.70;;
62929;SDS011;49036;42.782;23.108;2022-12-18T01:25:14;19.15;;;8.95;;
62929;SDS011;49036;42.782;23.108;2022-12-18T01:27:39;30.00;;;14.43;;
62929;SDS011;49036;42.782;23.108;2022-12-18T01:30:05;29.60;;;11.15;;
62929;SDS011;49036;42.782;23.108;2022-12-18T01:32:31;20.88;;;10.65;;
62929;SDS011;49036;42.782;23.108;2022-12-18T01:34:57;24.83;;;9.70;;
62929;SDS011;49036;42.782;23.108;2022-12-18T01:37:22;26.75;;;11.23;;
62929;SDS011;49036;42.782;23.108;2022-12-18T01:39:48;13.60;;;7.22;;
62929;SDS011;49036;42.782;23.108;2022-12-18T01:42:15;19.42;;;9.27;;
62929;SDS011;49036;42.782;23.108;2022-12-18T01:44:53;13.52;;;7.57;;
62929;SDS011;49036;42.782;23.108;2022-12-18T01:47:30;19.75;;;8.55;;
62929;SDS011;49036;42.782;23.108;2022-12-18T01:50:21;23.20;;;9.50;;
62929;SDS011;49036;42.782;23.108;2022-12-18T01:52:48;19.58;;;8.80;;
62929;SDS011;49036;42.782;23.108;2022-12-18T01:55:19;17.52;;;9.25;;
62929;SDS011;49036;42.782;23.108;2022-12-18T01:57:47;21.05;;;10.38;;
62929;SDS011;49036;42.782;23.108;2022-12-18T02:00:16;11.95;;;6.65;;
62929;SDS011;49036;42.782;23.108;2022-12-18T02:02:44;13.77;;;7.68;;
62929;SDS011;49036;42.782;23.108;2022-12-18T02:05:11;15.60;;;9.05;;
62929;SDS011;49036;42.782;23.108;2022-12-18T02:10:38;14.80;;;8.25;;
62929;SDS011;49036;42.782;23.108;2022-12-18T02:15:47;12.60;;;7.70;;
62929;SDS011;49036;42.782;23.108;2022-12-18T02:18:27;19.67;;;8.48;;
62929;SDS011;49036;42.782;23.108;2022-12-18T02:24:01;21.40;;;9.85;;
62929;SDS011;49036;42.782;23.108;2022-12-18T02:26:51;23.08;;;10.55;;
62929;SDS011;49036;42.782;23.108;2022-12-18T02:29:26;20.42;;;8.57;;
62929;SDS011;49036;42.782;23.108;2022-12-18T02:32:18;15.10;;;7.88;;
62929;SDS011;49036;42.782;23.108;2022-12-18T02:34:50;15.48;;;7.72;;
62929;SDS011;49036;42.782;23.108;2022-12-18T02:37:18;20.20;;;9.15;;
62929;SDS011;49036;42.782;23.108;2022-12-18T02:39:46;18.42;;;9.30;;
62929;SDS011;49036;42.782;23.108;2022-12-18T02:42:14;16.48;;;8.18;;
62929;SDS011;49036;42.782;23.108;2022-12-18T02:44:42;21.58;;;9.10;;
62929;SDS011;49036;42.782;23.108;2022-12-18T02:47:12;16.05;;;10.13;;
62929;SDS011;49036;42.782;23.108;2022-12-18T02:57:34;13.30;;;6.30;;
62929;SDS011;49036;42.782;23.108;2022-12-18T03:00:12;21.27;;;8.98;;
62929;SDS011;49036;42.782;23.108;2022-12-18T03:02:53;16.27;;;6.22;;
62929;SDS011;49036;42.782;23.108;2022-12-18T03:08:23;12.20;;;6.93;;
62929;SDS011;49036;42.782;23.108;2022-12-18T03:11:00;15.13;;;8.75;;
62929;SDS011;49036;42.782;23.108;2022-12-18T03:13:31;13.77;;;7.47;;
62929;SDS011;49036;42.782;23.108;2022-12-18T03:15:57;14.02;;;7.60;;
62929;SDS011;49036;42.782;23.108;2022-12-18T03:18:26;21.30;;;9.05;;
62929;SDS011;49036;42.782;23.108;2022-12-18T03:20:58;20.02;;;9.25;;
62929;SDS011;49036;42.782;23.108;2022-12-18T03:23:29;14.82;;;7.60;;
62929;SDS011;49036;42.782;23.108;2022-12-18T03:25:59;14.15;;;8.02;;
62929;SDS011;49036;42.782;23.108;2022-12-18T03:28:29;21.23;;;8.43;;
62929;SDS011;49036;42.782;23.108;2022-12-18T03:31:00;20.40;;;9.15;;
62929;SDS011;49036;42.782;23.108;2022-12-18T03:33:28;21.02;;;9.70;;
62929;SDS011;49036;42.782;23.108;2022-12-18T03:35:59;20.50;;;11.90;;
62929;SDS011;49036;42.782;23.108;2022-12-18T03:38:25;22.98;;;10.85;;
62929;SDS011;49036;42.782;23.108;2022-12-18T03:48:52;21.95;;;9.90;;
62929;SDS011;49036;42.782;23.108;2022-12-18T03:51:27;21.27;;;11.98;;
62929;SDS011;49036;42.782;23.108;2022-12-18T03:54:00;18.17;;;9.07;;
62929;SDS011;49036;42.782;23.108;2022-12-18T03:56:30;23.08;;;9.55;;
62929;SDS011;49036;42.782;23.108;2022-12-18T03:58:59;20.13;;;10.70;;
62929;SDS011;49036;42.782;23.108;2022-12-18T04:01:30;37.42;;;11.60;;
62929;SDS011;49036;42.782;23.108;2022-12-18T04:03:59;26.02;;;10.07;;
62929;SDS011;49036;42.782;23.108;2022-12-18T04:06:26;21.75;;;11.25;;
62929;SDS011;49036;42.782;23.108;2022-12-18T04:08:53;21.73;;;9.55;;
62929;SDS011;49036;42.782;23.108;2022-12-18T04:11:19;19.20;;;9.77;;
62929;SDS011;49036;42.782;23.108;2022-12-18T04:13:44;16.80;;;9.75;;
62929;SDS011;49036;42.782;23.108;2022-12-18T04:16:10;27.58;;;11.55;;
62929;SDS011;49036;42.782;23.108;2022-12-18T04:18:36;22.58;;;9.88;;
62929;SDS011;49036;42.782;23.108;2022-12-18T04:21:02;27.48;;;9.57;;
62929;SDS011;49036;42.782;23.108;2022-12-18T04:23:27;20.92;;;9.13;;
62929;SDS011;49036;42.782;23.108;2022-12-18T04:25:53;22.23;;;9.40;;
62929;SDS011;49036;42.782;23.108;2022-12-18T04:28:19;24.92;;;12.00;;
62929;SDS011;49036;42.782;23.108;2022-12-18T04:30:49;21.95;;;8.57;;
62929;SDS011;49036;42.782;23.108;2022-12-18T04:33:15;26.83;;;11.70;;
62929;SDS011;49036;42.782;23.108;2022-12-18T04:35:40;29.88;;;12.00;;
62929;SDS011;49036;42.782;23.108;2022-12-18T04:38:07;27.25;;;10.77;;
62929;SDS011;49036;42.782;23.108;2022-12-18T04:40:36;26.55;;;12.55;;
62929;SDS011;49036;42.782;23.108;2022-12-18T04:43:03;20.40;;;9.75;;
62929;SDS011;49036;42.782;23.108;2022-12-18T04:45:29;19.08;;;9.68;;
62929;SDS011;49036;42.782;23.108;2022-12-18T04:47:57;21.33;;;10.90;;
62929;SDS011;49036;42.782;23.108;2022-12-18T04:50:23;30.73;;;11.90;;
62929;SDS011;49036;42.782;23.108;2022-12-18T04:52:48;23.60;;;10.98;;
62929;SDS011;49036;42.782;23.108;2022-12-18T04:55:14;26.42;;;10.40;;
62929;SDS011;49036;42.782;23.108;2022-12-18T04:57:39;27.75;;;12.90;;
62929;SDS011;49036;42.782;23.108;2022-12-18T05:00:05;24.30;;;10.63;;
62929;SDS011;49036;42.782;23.108;2022-12-18T05:02:31;26.25;;;10.93;;
62929;SDS011;49036;42.782;23.108;2022-12-18T05:04:57;27.30;;;12.15;;
62929;SDS011;49036;42.782;23.108;2022-12-18T05:07:22;17.73;;;7.50;;
62929;SDS011;49036;42.782;23.108;2022-12-18T05:09:48;23.55;;;9.63;;
62929;SDS011;49036;42.782;23.108;2022-12-18T05:12:13;21.95;;;10.98;;
62929;SDS011;49036;42.782;23.108;2022-12-18T05:14:39;31.15;;;10.77;;
62929;SDS011;49036;42.782;23.108;2022-12-18T05:17:04;27.08;;;11.57;;
62929;SDS011;49036;42.782;23.108;2022-12-18T05:19:30;27.15;;;12.68;;
62929;SDS011;49036;42.782;23.108;2022-12-18T05:21:55;34.65;;;11.27;;
62929;SDS011;49036;42.782;23.108;2022-12-18T05:24:21;29.33;;;11.15;;
62929;SDS011;49036;42.782;23.108;2022-12-18T05:26:46;21.20;;;10.77;;
62929;SDS011;49036;42.782;23.108;2022-12-18T05:29:12;24.40;;;10.70;;
62929;SDS011;49036;42.782;23.108;2022-12-18T05:31:38;24.00;;;10.57;;
62929;SDS011;49036;42.782;23.108;2022-12-18T05:34:04;29.20;;;12.50;;
62929;SDS011;49036;42.782;23.108;2022-12-18T05:36:30;18.77;;;9.35;;
62929;SDS011;49036;42.782;23.108;2022-12-18T05:38:55;23.15;;;10.77;;
62929;SDS011;49036;42.782;23.108;2022-12-18T05:41:21;22.60;;;10.45;;
62929;SDS011;49036;42.782;23.108;2022-12-18T05:43:46;34.78;;;14.48;;
62929;SDS011;49036;42.782;23.108;2022-12-18T05:46:13;27.00;;;12.05;;
62929;SDS011;49036;42.782;23.108;2022-12-18T05:48:42;24.95;;;13.48;;
62929;SDS011;49036;42.782;23.108;2022-12-18T05:51:09;22.20;;;10.30;;
62929;SDS011;49036;42.782;23.108;2022-12-18T05:53:36;29.48;;;13.63;;
62929;SDS011;49036;42.782;23.108;2022-12-18T05:56:06;24.40;;;12.52;;
62929;SDS011;49036;42.782;23.108;2022-12-18T05:58:34;28.45;;;14.48;;
62929;SDS011;49036;42.782;23.108;2022-12-18T06:01:34;22.95;;;9.85;;
62929;SDS011;49036;42.782;23.108;2022-12-18T06:03:52;26.13;;;11.77;;
62929;SDS011;49036;42.782;23.108;2022-12-18T06:06:19;28.42;;;16.15;;
62929;SDS011;49036;42.782;23.108;2022-12-18T06:08:50;30.35;;;12.07;;
62929;SDS011;49036;42.782;23.108;2022-12-18T06:11:16;29.10;;;13.45;;
62929;SDS011;49036;42.782;23.108;2022-12-18T06:13:43;23.17;;;11.25;;
62929;SDS011;49036;42.782;23.108;2022-12-18T06:16:09;18.92;;;9.98;;
62929;SDS011;49036;42.782;23.108;2022-12-18T06:18:34;20.10;;;9.10;;
62929;SDS011;49036;42.782;23.108;2022-12-18T06:21:00;23.98;;;10.73;;
62929;SDS011;49036;42.782;23.108;2022-12-18T06:23:25;23.15;;;11.25;;
62929;SDS011;49036;42.782;23.108;2022-12-18T06:25:51;21.38;;;11.50;;
62929;SDS011;49036;42.782;23.108;2022-12-18T06:28:17;26.35;;;8.82;;
62929;SDS011;49036;42.782;23.108;2022-12-18T06:30:43;24.10;;;11.40;;
62929;SDS011;49036;42.782;23.108;2022-12-18T06:33:10;26.58;;;12.55;;
62929;SDS011;49036;42.782;23.108;2022-12-18T06:35:35;18.63;;;8.50;;
62929;SDS011;49036;42.782;23.108;2022-12-18T06:38:01;20.25;;;9.65;;
62929;SDS011;49036;42.782;23.108;2022-12-18T06:40:27;25.00;;;12.07;;
62929;SDS011;49036;42.782;23.108;2022-12-18T06:42:52;23.60;;;11.27;;
62929;SDS011;49036;42.782;23.108;2022-12-18T06:45:18;34.33;;;13.50;;
62929;SDS011;49036;42.782;23.108;2022-12-18T06:47:43;23.92;;;12.25;;
62929;SDS011;49036;42.782;23.108;2022-12-18T06:50:09;24.25;;;11.00;;
62929;SDS011;49036;42.782;23.108;2022-12-18T06:52:35;28.42;;;14.50;;
62929;SDS011;49036;42.782;23.108;2022-12-18T06:55:01;32.83;;;13.30;;
62929;SDS011;49036;42.782;23.108;2022-12-18T06:57:28;29.17;;;12.25;;
62929;SDS011;49036;42.782;23.108;2022-12-18T06:59:53;22.98;;;12.95;;
62929;SDS011;49036;42.782;23.108;2022-12-18T07:02:19;22.20;;;11.63;;
62929;SDS011;49036;42.782;23.108;2022-12-18T07:04:44;27.85;;;13.95;;
62929;SDS011;49036;42.782;23.108;2022-12-18T07:07:09;26.95;;;12.25;;
62929;SDS011;49036;42.782;23.108;2022-12-18T07:09:35;31.52;;;13.88;;
62929;SDS011;49036;42.782;23.108;2022-12-18T07:12:00;34.45;;;14.30;;
62929;SDS011;49036;42.782;23.108;2022-12-18T07:14:26;32.42;;;14.73;;
62929;SDS011;49036;42.782;23.108;2022-12-18T07:16:51;31.98;;;15.05;;
62929;SDS011;49036;42.782;23.108;2022-12-18T07:19:17;31.23;;;14.00;;
62929;SDS011;49036;42.782;23.108;2022-12-18T07:21:42;27.77;;;13.18;;
62929;SDS011;49036;42.782;23.108;2022-12-18T07:24:08;40.05;;;15.13;;
62929;SDS011;49036;42.782;23.108;2022-12-18T07:26:33;31.90;;;11.32;;
62929;SDS011;49036;42.782;23.108;2022-12-18T07:28:59;24.40;;;11.85;;
62929;SDS011;49036;42.782;23.108;2022-12-18T07:31:25;23.65;;;13.10;;
62929;SDS011;49036;42.782;23.108;2022-12-18T07:33:51;30.70;;;12.27;;
62929;SDS011;49036;42.782;23.108;2022-12-18T07:36:17;32.85;;;11.65;;
62929;SDS011;49036;42.782;23.108;2022-12-18T07:38:46;35.45;;;13.48;;
62929;SDS011;49036;42.782;23.108;2022-12-18T07:41:13;36.05;;;15.23;;
62929;SDS011;49036;42.782;23.108;2022-12-18T07:43:39;28.90;;;12.65;;
62929;SDS011;49036;42.782;23.108;2022-12-18T07:46:06;32.42;;;14.38;;
62929;SDS011;49036;42.782;23.108;2022-12-18T07:48:32;20.77;;;10.25;;
62929;SDS011;49036;42.782;23.108;2022-12-18T07:51:04;20.25;;;10.15;;
62929;SDS011;49036;42.782;23.108;2022-12-18T07:53:32;26.15;;;12.70;;
62929;SDS011;49036;42.782;23.108;2022-12-18T07:55:59;22.48;;;10.00;;
62929;SDS011;49036;42.782;23.108;2022-12-18T07:58:27;23.38;;;9.55;;
62929;SDS011;49036;42.782;23.108;2022-12-18T08:00:53;24.17;;;10.13;;
62929;SDS011;49036;42.782;23.108;2022-12-18T08:03:18;20.58;;;10.43;;
62929;SDS011;49036;42.782;23.108;2022-12-18T08:05:44;20.83;;;10.70;;
62929;SDS011;49036;42.782;23.108;2022-12-18T08:08:09;25.98;;;9.43;;
62929;SDS011;49036;42.782;23.108;2022-12-18T08:10:35;25.58;;;10.88;;
62929;SDS011;49036;42.782;23.108;2022-12-18T08:13:00;28.10;;;12.80;;
62929;SDS011;49036;42.782;23.108;2022-12-18T08:15:26;21.65;;;10.05;;
62929;SDS011;49036;42.782;23.108;2022-12-18T08:17:51;17.88;;;9.02;;
62929;SDS011;49036;42.782;23.108;2022-12-18T08:20:17;20.75;;;10.60;;
62929;SDS011;49036;42.782;23.108;2022-12-18T08:22:43;16.23;;;8.52;;
62929;SDS011;49036;42.782;23.108;2022-12-18T08:25:09;19.17;;;8.65;;
62929;SDS011;49036;42.782;23.108;2022-12-18T08:27:35;25.10;;;9.35;;
62929;SDS011;49036;42.782;23.108;2022-12-18T08:30:01;25.42;;;10.23;;
62929;SDS011;49036;42.782;23.108;2022-12-18T08:32:26;23.25;;;10.00;;
62929;SDS011;49036;42.782;23.108;2022-12-18T08:34:53;18.88;;;8.98;;
62929;SDS011;49036;42.782;23.108;2022-12-18T08:37:18;25.33;;;11.57;;
62929;SDS011;49036;42.782;23.108;2022-12-18T08:39:44;26.27;;;10.63;;
62929;SDS011;49036;42.782;23.108;2022-12-18T08:42:10;19.27;;;8.63;;
62929;SDS011;49036;42.782;23.108;2022-12-18T08:44:54;19.20;;;10.05;;
62929;SDS011;49036;42.782;23.108;2022-12-18T08:47:19;16.23;;;7.05;;
62929;SDS011;49036;42.782;23.108;2022-12-18T08:49:45;23.80;;;9.77;;
62929;SDS011;49036;42.782;23.108;2022-12-18T08:52:10;19.98;;;9.95;;
62929;SDS011;49036;42.782;23.108;2022-12-18T08:54:36;20.50;;;9.27;;
62929;SDS011;49036;42.782;23.108;2022-12-18T08:57:01;23.42;;;9.82;;
62929;SDS011;49036;42.782;23.108;2022-12-18T08:59:28;17.13;;;8.02;;
62929;SDS011;49036;42.782;23.108;2022-12-18T09:01:54;25.45;;;10.50;;
62929;SDS011;49036;42.782;23.108;2022-12-18T09:04:20;15.18;;;7.15;;
62929;SDS011;49036;42.782;23.108;2022-12-18T09:06:45;16.85;;;8.70;;
62929;SDS011;49036;42.782;23.108;2022-12-18T09:09:11;18.45;;;8.93;;
62929;SDS011;49036;42.782;23.108;2022-12-18T09:11:36;26.25;;;8.77;;
62929;SDS011;49036;42.782;23.108;2022-12-18T09:14:02;14.77;;;8.13;;
62929;SDS011;49036;42.782;23.108;2022-12-18T09:16:28;16.50;;;8.98;;
62929;SDS011;49036;42.782;23.108;2022-12-18T09:18:55;21.90;;;9.55;;
62929;SDS011;49036;42.782;23.108;2022-12-18T09:21:24;20.92;;;8.40;;
62929;SDS011;49036;42.782;23.108;2022-12-18T09:23:52;17.77;;;8.43;;
62929;SDS011;49036;42.782;23.108;2022-12-18T09:26:19;16.45;;;7.07;;
62929;SDS011;49036;42.782;23.108;2022-12-18T09:28:48;18.45;;;7.75;;
62929;SDS011;49036;42.782;23.108;2022-12-18T09:33:41;16.40;;;6.53;;
62929;SDS011;49036;42.782;23.108;2022-12-18T09:36:07;15.13;;;8.50;;
62929;SDS011;49036;42.782;23.108;2022-12-18T09:38:34;19.95;;;7.75;;
62929;SDS011;49036;42.782;23.108;2022-12-18T09:41:03;14.13;;;7.10;;
62929;SDS011;49036;42.782;23.108;2022-12-18T09:43:34;18.67;;;6.95;;
62929;SDS011;49036;42.782;23.108;2022-12-18T09:48:42;13.48;;;5.60;;
62929;SDS011;49036;42.782;23.108;2022-12-18T09:51:15;13.40;;;7.57;;
62929;SDS011;49036;42.782;23.108;2022-12-18T09:53:47;15.15;;;7.70;;
62929;SDS011;49036;42.782;23.108;2022-12-18T09:56:18;16.67;;;8.35;;
62929;SDS011;49036;42.782;23.108;2022-12-18T10:01:26;16.02;;;7.50;;
62929;SDS011;49036;42.782;23.108;2022-12-18T10:03:53;18.60;;;7.78;;
62929;SDS011;49036;42.782;23.108;2022-12-18T10:06:21;22.73;;;10.40;;
62929;SDS011;49036;42.782;23.108;2022-12-18T10:09:06;12.40;;;7.45;;
62929;SDS011;49036;42.782;23.108;2022-12-18T10:26:03;17.27;;;7.47;;
62929;SDS011;49036;42.782;23.108;2022-12-18T10:28:31;15.95;;;7.38;;
62929;SDS011;49036;42.782;23.108;2022-12-18T10:30:58;14.50;;;7.38;;
62929;SDS011;49036;42.782;23.108;2022-12-18T10:33:27;15.77;;;8.57;;
62929;SDS011;49036;42.782;23.108;2022-12-18T10:35:54;13.32;;;7.15;;
62929;SDS011;49036;42.782;23.108;2022-12-18T10:38:21;21.48;;;8.60;;
62929;SDS011;49036;42.782;23.108;2022-12-18T10:46:20;19.55;;;8.77;;
62929;SDS011;49036;42.782;23.108;2022-12-18T10:51:16;11.27;;;6.53;;
62929;SDS011;49036;42.782;23.108;2022-12-18T10:56:30;13.07;;;6.18;;
62929;SDS011;49036;42.782;23.108;2022-12-18T10:59:02;15.23;;;5.72;;
62929;SDS011;49036;42.782;23.108;2022-12-18T11:01:48;13.73;;;8.10;;
62929;SDS011;49036;42.782;23.108;2022-12-18T11:04:27;12.32;;;5.43;;
62929;SDS011;49036;42.782;23.108;2022-12-18T11:06:58;15.82;;;7.03;;
62929;SDS011;49036;42.782;23.108;2022-12-18T11:09:35;11.10;;;5.82;;
62929;SDS011;49036;42.782;23.108;2022-12-18T11:12:14;15.70;;;7.28;;
62929;SDS011;49036;42.782;23.108;2022-12-18T11:14:43;17.52;;;7.45;;
62929;SDS011;49036;42.782;23.108;2022-12-18T11:17:23;12.48;;;6.43;;
62929;SDS011;49036;42.782;23.108;2022-12-18T11:19:59;16.58;;;8.25;;
62929;SDS011;49036;42.782;23.108;2022-12-18T11:22:27;17.60;;;7.50;;
62929;SDS011;49036;42.782;23.108;2022-12-18T11:25:01;16.67;;;8.60;;
62929;SDS011;49036;42.782;23.108;2022-12-18T11:27:30;13.40;;;7.50;;
62929;SDS011;49036;42.782;23.108;2022-12-18T11:32:46;15.68;;;8.85;;
62929;SDS011;49036;42.782;23.108;2022-12-18T11:38:04;13.98;;;6.45;;
62929;SDS011;49036;42.782;23.108;2022-12-18T11:40:40;17.80;;;9.38;;
62929;SDS011;49036;42.782;23.108;2022-12-18T11:43:16;19.98;;;9.18;;
62929;SDS011;49036;42.782;23.108;2022-12-18T11:45:49;20.05;;;8.98;;
62929;SDS011;49036;42.782;23.108;2022-12-18T11:48:24;15.82;;;7.43;;
62929;SDS011;49036;42.782;23.108;2022-12-18T11:50:56;16.33;;;7.50;;
62929;SDS011;49036;42.782;23.108;2022-12-18T11:53:24;20.67;;;8.85;;
62929;SDS011;49036;42.782;23.108;2022-12-18T11:59:44;15.40;;;7.00;;
62929;SDS011;49036;42.782;23.108;2022-12-18T12:08:06;21.67;;;8.02;;
62929;SDS011;49036;42.782;23.108;2022-12-18T12:13:40;21.67;;;7.65;;
62929;SDS011;49036;42.782;23.108;2022-12-18T12:16:27;16.60;;;8.93;;
62929;SDS011;49036;42.782;23.108;2022-12-18T12:22:03;18.17;;;8.95;;
62929;SDS011;49036;42.782;23.108;2022-12-18T12:30:05;14.93;;;6.68;;
62929;SDS011;49036;42.782;23.108;2022-12-18T12:38:07;13.50;;;5.85;;
62929;SDS011;49036;42.782;23.108;2022-12-18T12:40:43;14.35;;;6.90;;
62929;SDS011;49036;42.782;23.108;2022-12-18T12:43:21;12.18;;;5.93;;
62929;SDS011;49036;42.782;23.108;2022-12-18T12:45:55;19.15;;;8.30;;
62929;SDS011;49036;42.782;23.108;2022-12-18T12:48:35;11.63;;;6.57;;
62929;SDS011;49036;42.782;23.108;2022-12-18T12:51:11;14.35;;;6.97;;
62929;SDS011;49036;42.782;23.108;2022-12-18T12:53:40;16.42;;;7.07;;
62929;SDS011;49036;42.782;23.108;2022-12-18T12:56:06;15.95;;;7.85;;
62929;SDS011;49036;42.782;23.108;2022-12-18T13:01:28;19.55;;;8.05;;
62929;SDS011;49036;42.782;23.108;2022-12-18T13:15:30;22.05;;;8.45;;
62929;SDS011;49036;42.782;23.108;2022-12-18T13:18:02;19.60;;;9.55;;
62929;SDS011;49036;42.782;23.108;2022-12-18T13:20:35;15.23;;;6.75;;
62929;SDS011;49036;42.782;23.108;2022-12-18T13:23:20;14.35;;;6.90;;
62929;SDS011;49036;42.782;23.108;2022-12-18T13:25:53;16.83;;;7.63;;
62929;SDS011;49036;42.782;23.108;2022-12-18T13:28:21;16.30;;;7.15;;
62929;SDS011;49036;42.782;23.108;2022-12-18T13:30:56;16.65;;;6.30;;
62929;SDS011;49036;42.782;23.108;2022-12-18T13:38:41;20.23;;;7.90;;
62929;SDS011;49036;42.782;23.108;2022-12-18T13:43:33;15.35;;;5.93;;
62929;SDS011;49036;42.782;23.108;2022-12-18T13:46:20;15.65;;;6.55;;
62929;SDS011;49036;42.782;23.108;2022-12-18T13:51:29;16.17;;;6.30;;
62929;SDS011;49036;42.782;23.108;2022-12-18T13:54:02;16.15;;;6.63;;
62929;SDS011;49036;42.782;23.108;2022-12-18T13:56:42;12.77;;;5.45;;
62929;SDS011;49036;42.782;23.108;2022-12-18T14:01:56;16.65;;;6.90;;
62929;SDS011;49036;42.782;23.108;2022-12-18T14:04:24;16.27;;;5.60;;
62929;SDS011;49036;42.782;23.108;2022-12-18T14:07:15;13.25;;;6.75;;
62929;SDS011;49036;42.782;23.108;2022-12-18T14:09:41;11.38;;;5.70;;
62929;SDS011;49036;42.782;23.108;2022-12-18T14:12:16;12.30;;;5.93;;
62929;SDS011;49036;42.782;23.108;2022-12-18T14:15:03;14.75;;;6.80;;
62929;SDS011;49036;42.782;23.108;2022-12-18T14:17:31;12.38;;;5.63;;
62929;SDS011;49036;42.782;23.108;2022-12-18T14:19:57;14.07;;;6.38;;
62929;SDS011;49036;42.782;23.108;2022-12-18T14:22:23;13.00;;;6.30;;
62929;SDS011;49036;42.782;23.108;2022-12-18T14:27:42;15.27;;;5.88;;
62929;SDS011;49036;42.782;23.108;2022-12-18T14:33:01;17.98;;;7.35;;
62929;SDS011;49036;42.782;23.108;2022-12-18T14:35:30;13.50;;;6.20;;
62929;SDS011;49036;42.782;23.108;2022-12-18T14:38:10;14.63;;;7.32;;
62929;SDS011;49036;42.782;23.108;2022-12-18T14:40:44;13.45;;;7.00;;
62929;SDS011;49036;42.782;23.108;2022-12-18T14:43:10;20.70;;;8.32;;
62929;SDS011;49036;42.782;23.108;2022-12-18T14:45:37;15.60;;;5.97;;
62929;SDS011;49036;42.782;23.108;2022-12-18T14:53:35;13.38;;;6.63;;
62929;SDS011;49036;42.782;23.108;2022-12-18T14:56:13;12.95;;;7.32;;
62929;SDS011;49036;42.782;23.108;2022-12-18T14:58:46;14.98;;;6.45;;
62929;SDS011;49036;42.782;23.108;2022-12-18T15:01:35;23.00;;;7.75;;
62929;SDS011;49036;42.782;23.108;2022-12-18T15:04:02;11.80;;;6.18;;
62929;SDS011;49036;42.782;23.108;2022-12-18T15:06:33;13.70;;;7.43;;
62929;SDS011;49036;42.782;23.108;2022-12-18T15:09:03;24.85;;;11.05;;
62929;SDS011;49036;42.782;23.108;2022-12-18T15:11:49;21.75;;;8.55;;
62929;SDS011;49036;42.782;23.108;2022-12-18T15:14:22;23.13;;;11.65;;
62929;SDS011;49036;42.782;23.108;2022-12-18T15:17:05;17.25;;;8.23;;
62929;SDS011;49036;42.782;23.108;2022-12-18T15:19:42;19.73;;;8.77;;
62929;SDS011;49036;42.782;23.108;2022-12-18T15:22:20;21.80;;;9.23;;
62929;SDS011;49036;42.782;23.108;2022-12-18T15:24:48;22.75;;;9.75;;
62929;SDS011;49036;42.782;23.108;2022-12-18T15:27:21;26.45;;;10.80;;
62929;SDS011;49036;42.782;23.108;2022-12-18T15:32:38;14.82;;;6.85;;
62929;SDS011;49036;42.782;23.108;2022-12-18T15:37:36;20.58;;;7.85;;
62929;SDS011;49036;42.782;23.108;2022-12-18T15:40:03;22.30;;;10.18;;
62929;SDS011;49036;42.782;23.108;2022-12-18T15:42:29;9.60;;;6.25;;
62929;SDS011;49036;42.782;23.108;2022-12-18T15:45:13;18.48;;;9.35;;
62929;SDS011;49036;42.782;23.108;2022-12-18T15:47:39;18.63;;;8.93;;
62929;SDS011;49036;42.782;23.108;2022-12-18T15:50:07;21.38;;;9.90;;
62929;SDS011;49036;42.782;23.108;2022-12-18T15:55:05;26.05;;;10.77;;
62929;SDS011;49036;42.782;23.108;2022-12-18T15:57:54;15.38;;;7.82;;
62929;SDS011;49036;42.782;23.108;2022-12-18T16:00:19;24.50;;;10.73;;
62929;SDS011;49036;42.782;23.108;2022-12-18T16:02:45;25.10;;;10.15;;
62929;SDS011;49036;42.782;23.108;2022-12-18T16:05:13;15.82;;;6.40;;
62929;SDS011;49036;42.782;23.108;2022-12-18T16:07:40;20.48;;;10.43;;
62929;SDS011;49036;42.782;23.108;2022-12-18T16:10:06;23.10;;;8.55;;
62929;SDS011;49036;42.782;23.108;2022-12-18T16:12:32;20.23;;;9.13;;
62929;SDS011;49036;42.782;23.108;2022-12-18T16:14:57;27.80;;;10.32;;
62929;SDS011;49036;42.782;23.108;2022-12-18T16:17:23;23.88;;;8.95;;
62929;SDS011;49036;42.782;23.108;2022-12-18T16:19:48;28.13;;;11.18;;
62929;SDS011;49036;42.782;23.108;2022-12-18T16:22:17;26.00;;;10.27;;
62929;SDS011;49036;42.782;23.108;2022-12-18T16:24:47;25.50;;;11.18;;
62929;SDS011;49036;42.782;23.108;2022-12-18T16:27:13;27.20;;;11.43;;
62929;SDS011;49036;42.782;23.108;2022-12-18T16:29:39;14.95;;;7.63;;
62929;SDS011;49036;42.782;23.108;2022-12-18T16:32:04;16.88;;;9.25;;
62929;SDS011;49036;42.782;23.108;2022-12-18T16:34:30;19.35;;;9.70;;
62929;SDS011;49036;42.782;23.108;2022-12-18T16:36:58;20.40;;;8.18;;
62929;SDS011;49036;42.782;23.108;2022-12-18T16:39:28;21.05;;;8.85;;
62929;SDS011;49036;42.782;23.108;2022-12-18T16:41:55;25.10;;;10.40;;
62929;SDS011;49036;42.782;23.108;2022-12-18T16:44:20;17.67;;;8.27;;
62929;SDS011;49036;42.782;23.108;2022-12-18T16:46:46;20.23;;;7.75;;